createdAt,value
2023-12-09T00:00:55.500Z,6.25
2023-12-09T00:01:59.050Z,6.00
2023-12-09T00:03:02.581Z,7.00
2023-12-09T00:04:06.167Z,7.00
2023-12-09T00:05:09.828Z,7.50
2023-12-09T00:06:13.600Z,7.50
2023-12-09T00:07:17.969Z,8.00
2023-12-09T00:08:21.625Z,6.75
2023-12-09T00:09:25.347Z,6.00
2023-12-09T00:10:28.712Z,7.00
2023-12-09T00:11:32.061Z,7.00
2023-12-09T00:12:35.675Z,7.50
2023-12-09T00:13:39.377Z,7.00
2023-12-09T00:14:42.975Z,8.00
2023-12-09T00:15:46.560Z,7.50
2023-12-09T00:16:50.529Z,7.00
2023-12-09T00:17:54.466Z,7.50
2023-12-09T00:18:57.949Z,7.50
2023-12-09T00:20:01.535Z,8.00
2023-12-09T00:21:05.048Z,7.75
2023-12-09T00:22:08.825Z,7.75
2023-12-09T00:23:12.281Z,7.00
2023-12-09T00:24:15.772Z,6.50
2023-12-09T00:25:19.162Z,7.00
2023-12-09T00:26:22.685Z,7.50
2023-12-09T00:27:26.291Z,8.50
2023-12-09T00:28:29.517Z,8.00
2023-12-09T00:29:33.114Z,8.00
2023-12-09T00:30:36.561Z,8.00
2023-12-09T00:31:39.936Z,8.00
2023-12-09T00:32:43.674Z,9.20
2023-12-09T00:33:47.490Z,9.50
2023-12-09T00:34:50.777Z,8.50
2023-12-09T00:35:54.028Z,8.00
2023-12-09T00:36:57.349Z,8.00
2023-12-09T00:38:00.959Z,7.75
2023-12-09T00:39:04.315Z,8.00
2023-12-09T00:40:07.572Z,8.25
2023-12-09T00:41:10.810Z,8.00
2023-12-09T00:42:14.139Z,7.50
2023-12-09T00:43:17.348Z,8.00
2023-12-09T00:44:20.776Z,8.00
2023-12-09T00:45:24.190Z,8.50
2023-12-09T00:46:27.303Z,9.00
2023-12-09T00:47:30.525Z,9.00
2023-12-09T00:48:33.960Z,7.50
2023-12-09T00:49:37.200Z,7.25
2023-12-09T00:50:40.381Z,6.75
2023-12-09T00:51:43.660Z,7.00
2023-12-09T00:52:46.833Z,7.25
2023-12-09T00:53:50.018Z,9.00
2023-12-09T00:54:53.265Z,8.00
2023-12-09T00:55:56.675Z,7.75
2023-12-09T00:57:00.243Z,8.50
2023-12-09T00:58:03.494Z,8.50
2023-12-09T00:59:06.743Z,8.50
2023-12-09T01:00:10.209Z,8.50
2023-12-09T01:01:13.867Z,8.00
2023-12-09T01:02:17.419Z,9.00
2023-12-09T01:03:20.768Z,7.50
2023-12-09T01:04:24.162Z,8.00
2023-12-09T01:05:28.091Z,8.50
2023-12-09T01:06:31.533Z,8.50
2023-12-09T01:07:34.925Z,8.50
2023-12-09T01:08:38.446Z,9.00
2023-12-09T01:09:41.746Z,9.00
2023-12-09T01:10:45.228Z,9.00
2023-12-09T01:11:48.572Z,7.50
2023-12-09T01:12:51.947Z,8.00
2023-12-09T01:13:55.487Z,8.00
2023-12-09T01:14:59.002Z,8.50
2023-12-09T01:16:02.167Z,9.00
2023-12-09T01:17:05.484Z,9.00
2023-12-09T01:18:08.866Z,9.00
2023-12-09T01:19:12.374Z,9.50
2023-12-09T01:20:15.780Z,9.00
2023-12-09T01:21:19.139Z,9.40
2023-12-09T01:22:22.268Z,9.25
2023-12-09T01:23:25.458Z,9.00
2023-12-09T01:24:28.635Z,9.00
2023-12-09T01:25:32.031Z,9.25
2023-12-09T01:26:35.440Z,9.50
2023-12-09T01:27:38.463Z,8.25
2023-12-09T01:28:41.676Z,9.00
2023-12-09T01:29:44.954Z,8.50
2023-12-09T01:30:48.647Z,8.75
2023-12-09T01:31:51.796Z,9.50
2023-12-09T01:32:55.449Z,9.25
2023-12-09T01:33:59.194Z,8.00
2023-12-09T01:35:02.918Z,8.00
2023-12-09T01:36:06.335Z,8.50
2023-12-09T01:37:09.901Z,10.00
2023-12-09T01:38:13.379Z,9.50
2023-12-09T01:39:16.914Z,9.25
2023-12-09T01:40:20.025Z,8.00
2023-12-09T01:41:23.245Z,8.00
2023-12-09T01:42:26.956Z,8.50
2023-12-09T01:43:30.523Z,8.25
2023-12-09T01:44:33.679Z,8.50
2023-12-09T01:45:37.125Z,8.50
2023-12-09T01:46:40.264Z,8.00
2023-12-09T01:47:43.370Z,8.50
2023-12-09T01:48:46.839Z,9.00
2023-12-09T01:49:50.434Z,8.75
2023-12-09T01:50:53.862Z,9.00
2023-12-09T01:51:57.101Z,10.50
2023-12-09T01:53:00.287Z,9.50
2023-12-09T01:54:03.417Z,9.50
2023-12-09T01:55:06.647Z,10.00
2023-12-09T01:56:09.723Z,9.50
2023-12-09T01:57:12.938Z,8.50
2023-12-09T01:58:16.105Z,8.00
2023-12-09T01:59:19.275Z,7.75
2023-12-09T02:00:22.894Z,8.00
2023-12-09T02:01:26.254Z,8.00
2023-12-09T02:02:30.343Z,8.00
2023-12-09T02:03:34.298Z,8.00
2023-12-09T02:04:38.001Z,8.00
2023-12-09T02:05:41.589Z,8.00
2023-12-09T02:06:45.183Z,8.00
2023-12-09T02:07:48.905Z,8.00
2023-12-09T02:08:52.397Z,8.00
2023-12-09T02:09:56.237Z,8.00
2023-12-09T02:10:59.710Z,8.00
2023-12-09T02:12:03.175Z,8.00
2023-12-09T02:13:06.540Z,8.00
2023-12-09T02:14:10.064Z,8.00
2023-12-09T02:15:13.568Z,8.00
2023-12-09T02:16:17.249Z,7.75
2023-12-09T02:17:20.750Z,8.00
2023-12-09T02:18:23.988Z,8.50
2023-12-09T02:19:27.365Z,8.25
2023-12-09T02:20:30.589Z,8.00
2023-12-09T02:21:33.750Z,8.00
2023-12-09T02:22:37.076Z,8.50
2023-12-09T02:23:40.405Z,8.00
2023-12-09T02:24:43.491Z,7.50
2023-12-09T02:25:46.717Z,7.00
2023-12-09T02:26:50.096Z,8.00
2023-12-09T02:27:53.178Z,8.25
2023-12-09T02:28:56.453Z,8.50
2023-12-09T02:29:59.770Z,8.50
2023-12-09T02:31:02.999Z,8.25
2023-12-09T02:32:06.207Z,8.00
2023-12-09T02:33:09.423Z,7.50
2023-12-09T02:34:12.685Z,7.50
2023-12-09T02:35:15.949Z,7.50
2023-12-09T02:36:19.265Z,7.50
2023-12-09T02:37:22.501Z,8.00
2023-12-09T02:38:25.708Z,8.00
2023-12-09T02:39:29.204Z,8.00
2023-12-09T02:40:32.483Z,9.00
2023-12-09T02:41:35.609Z,8.50
2023-12-09T02:42:38.876Z,8.25
2023-12-09T02:43:42.243Z,8.00
2023-12-09T02:44:45.520Z,8.00
2023-12-09T02:45:48.726Z,7.00
2023-12-09T02:46:51.876Z,7.50
2023-12-09T02:47:55.232Z,8.00
2023-12-09T02:48:58.650Z,9.75
2023-12-09T02:50:01.934Z,8.50
2023-12-09T02:51:05.138Z,8.50
2023-12-09T02:52:08.401Z,8.25
2023-12-09T02:53:11.688Z,9.00
2023-12-09T02:54:14.927Z,9.00
2023-12-09T02:55:18.226Z,8.50
2023-12-09T02:56:21.294Z,8.50
2023-12-09T02:57:24.573Z,8.00
2023-12-09T02:58:27.804Z,8.00
2023-12-09T02:59:31.091Z,9.00
2023-12-09T03:00:34.477Z,8.75
2023-12-09T03:01:37.753Z,8.50
2023-12-09T03:02:40.968Z,8.50
2023-12-09T03:03:44.204Z,8.50
2023-12-09T03:04:47.423Z,7.50
2023-12-09T03:05:50.982Z,8.00
2023-12-09T03:06:54.588Z,8.25
2023-12-09T03:07:57.631Z,9.00
2023-12-09T03:09:01.269Z,9.50
2023-12-09T03:10:04.337Z,9.00
2023-12-09T03:11:07.632Z,8.00
2023-12-09T03:12:10.942Z,8.50
2023-12-09T03:13:14.398Z,9.00
2023-12-09T03:14:17.673Z,9.75
2023-12-09T03:15:20.948Z,7.50
2023-12-09T03:16:24.136Z,8.50
2023-12-09T03:17:27.202Z,9.50
2023-12-09T03:18:30.424Z,9.00
2023-12-09T03:19:34.062Z,9.25
2023-12-09T03:20:37.505Z,9.00
2023-12-09T03:21:40.982Z,9.00
2023-12-09T03:22:44.168Z,8.50
2023-12-09T03:23:47.381Z,8.50
2023-12-09T03:24:50.823Z,9.50
2023-12-09T03:25:53.806Z,8.50
2023-12-09T03:26:57.125Z,7.50
2023-12-09T03:28:01.458Z,7.00
2023-12-09T03:29:04.890Z,8.00
2023-12-09T03:30:08.241Z,7.50
2023-12-09T03:31:11.423Z,6.60
2023-12-09T03:32:14.612Z,7.00
2023-12-09T03:33:17.898Z,8.00
2023-12-09T03:34:21.249Z,7.50
2023-12-09T03:35:24.496Z,7.25
2023-12-09T03:36:27.903Z,7.00
2023-12-09T03:37:31.470Z,7.00
2023-12-09T03:38:34.651Z,7.50
2023-12-09T03:39:37.970Z,7.00
2023-12-09T03:40:41.630Z,7.00
2023-12-09T03:41:44.801Z,6.75
2023-12-09T03:42:48.402Z,7.00
2023-12-09T03:43:51.726Z,7.00
2023-12-09T03:44:54.852Z,7.00
2023-12-09T03:45:57.941Z,6.50
2023-12-09T03:47:04.892Z,6.50
2023-12-09T03:48:05.908Z,6.50
2023-12-09T03:49:09.526Z,7.00
2023-12-09T03:50:12.998Z,7.00
2023-12-09T03:51:16.308Z,7.00
2023-12-09T03:52:19.972Z,6.50
2023-12-09T03:53:23.215Z,7.00
2023-12-09T03:54:26.638Z,6.75
2023-12-09T03:55:31.358Z,8.00
2023-12-09T03:56:34.579Z,6.75
2023-12-09T03:57:38.216Z,6.50
2023-12-09T03:58:41.886Z,7.00
2023-12-09T03:59:45.270Z,7.25
2023-12-09T04:00:48.688Z,7.00
2023-12-09T04:01:52.037Z,7.00
2023-12-09T04:02:55.425Z,7.00
2023-12-09T04:03:58.675Z,7.00
2023-12-09T04:05:02.008Z,7.00
2023-12-09T04:06:05.256Z,7.50
2023-12-09T04:07:08.680Z,7.50
2023-12-09T04:08:11.936Z,6.50
2023-12-09T04:09:15.358Z,6.00
2023-12-09T04:10:18.604Z,6.50
2023-12-09T04:11:22.001Z,6.50
2023-12-09T04:12:25.415Z,7.00
2023-12-09T04:13:28.765Z,8.00
2023-12-09T04:14:32.030Z,7.00
2023-12-09T04:15:35.157Z,5.75
2023-12-09T04:16:38.412Z,7.00
2023-12-09T04:17:41.736Z,5.25
2023-12-09T04:18:45.091Z,5.75
2023-12-09T04:19:48.437Z,6.00
2023-12-09T04:20:51.892Z,6.00
2023-12-09T04:21:55.145Z,6.00
2023-12-09T04:22:58.319Z,6.50
2023-12-09T04:24:01.539Z,6.50
2023-12-09T04:25:04.788Z,6.25
2023-12-09T04:26:08.067Z,6.50
2023-12-09T04:27:11.289Z,6.75
2023-12-09T04:28:14.434Z,6.25
2023-12-09T04:29:17.513Z,6.50
2023-12-09T04:30:20.867Z,5.25
2023-12-09T04:31:23.947Z,5.00
2023-12-09T04:32:27.346Z,5.50
2023-12-09T04:33:30.517Z,6.00
2023-12-09T04:34:33.766Z,7.50
2023-12-09T04:35:37.139Z,6.50
2023-12-09T04:36:40.344Z,5.75
2023-12-09T04:37:43.561Z,6.50
2023-12-09T04:38:46.976Z,6.60
2023-12-09T04:39:50.015Z,6.25
2023-12-09T04:40:53.233Z,6.50
2023-12-09T04:41:56.443Z,6.25
2023-12-09T04:42:59.606Z,6.00
2023-12-09T04:44:02.857Z,6.50
2023-12-09T04:45:06.211Z,6.50
2023-12-09T04:46:09.459Z,6.50
2023-12-09T04:47:12.736Z,6.25
2023-12-09T04:48:16.432Z,5.25
2023-12-09T04:49:20.024Z,6.00
2023-12-09T04:50:23.509Z,7.00
2023-12-09T04:51:26.763Z,6.50
2023-12-09T04:52:30.335Z,6.00
2023-12-09T04:53:33.692Z,6.50
2023-12-09T04:54:36.983Z,7.00
2023-12-09T04:55:40.212Z,6.00
2023-12-09T04:56:43.519Z,6.75
2023-12-09T04:57:46.814Z,6.75
2023-12-09T04:58:49.999Z,6.50
2023-12-09T04:59:53.315Z,6.50
2023-12-09T05:00:56.673Z,6.50
2023-12-09T05:01:59.733Z,6.25
2023-12-09T05:03:02.711Z,7.00
2023-12-09T05:04:06.254Z,7.75
2023-12-09T05:05:09.501Z,6.75
2023-12-09T05:06:12.764Z,7.00
2023-12-09T05:07:16.159Z,7.00
2023-12-09T05:08:19.304Z,7.50
2023-12-09T05:09:22.462Z,7.50
2023-12-09T05:10:25.685Z,7.00
2023-12-09T05:11:28.933Z,7.25
2023-12-09T05:12:32.514Z,6.50
2023-12-09T05:13:35.857Z,6.50
2023-12-09T05:14:39.068Z,7.00
2023-12-09T05:15:42.401Z,6.75
2023-12-09T05:16:45.724Z,6.00
2023-12-09T05:17:49.058Z,6.25
2023-12-09T05:18:52.435Z,5.50
2023-12-09T05:19:55.675Z,5.50
2023-12-09T05:20:58.813Z,6.00
2023-12-09T05:22:02.242Z,5.00
2023-12-09T05:23:07.262Z,5.75
2023-12-09T05:24:09.870Z,6.00
2023-12-09T05:25:13.337Z,5.50
2023-12-09T05:26:16.711Z,5.00
2023-12-09T05:27:19.975Z,5.00
2023-12-09T05:28:23.213Z,5.00
2023-12-09T05:29:26.589Z,6.00
2023-12-09T05:30:29.802Z,6.25
2023-12-09T05:31:33.238Z,6.50
2023-12-09T05:32:36.551Z,5.50
2023-12-09T05:33:39.790Z,5.75
2023-12-09T05:34:42.960Z,5.00
2023-12-09T05:35:46.365Z,6.40
2023-12-09T05:36:49.458Z,7.50
2023-12-09T05:37:52.685Z,8.00
2023-12-09T05:38:56.061Z,7.25
2023-12-09T05:39:59.970Z,8.50
2023-12-09T05:41:03.419Z,8.00
2023-12-09T05:42:06.956Z,7.50
2023-12-09T05:43:10.386Z,7.00
2023-12-09T05:44:13.772Z,8.20
2023-12-09T05:45:17.346Z,8.50
2023-12-09T05:46:20.844Z,8.25
2023-12-09T05:47:24.486Z,8.50
2023-12-09T05:48:28.043Z,9.00
2023-12-09T05:49:31.598Z,9.50
2023-12-09T05:50:35.320Z,10.25
2023-12-09T05:51:39.065Z,10.50
2023-12-09T05:52:42.500Z,10.00
2023-12-09T05:53:46.300Z,10.40
2023-12-09T05:54:49.791Z,9.25
2023-12-09T05:55:53.145Z,10.50
2023-12-09T05:56:56.800Z,11.50
2023-12-09T05:58:00.290Z,10.50
2023-12-09T05:59:03.741Z,9.25
2023-12-09T06:00:07.375Z,9.50
2023-12-09T06:01:10.834Z,9.75
2023-12-09T06:02:14.312Z,9.00
2023-12-09T06:03:17.833Z,9.50
2023-12-09T06:04:21.362Z,10.50
2023-12-09T06:05:24.999Z,11.00
2023-12-09T06:06:28.663Z,10.50
2023-12-09T06:07:32.268Z,9.50
2023-12-09T06:08:35.888Z,9.25
2023-12-09T06:09:39.403Z,8.50
2023-12-09T06:10:43.147Z,9.50
2023-12-09T06:11:46.747Z,9.50
2023-12-09T06:12:50.267Z,9.00
2023-12-09T06:13:53.571Z,8.50
2023-12-09T06:14:56.813Z,7.00
2023-12-09T06:16:00.210Z,7.00
2023-12-09T06:17:03.566Z,5.50
2023-12-09T06:18:07.243Z,5.75
2023-12-09T06:19:10.677Z,6.50
2023-12-09T06:20:14.104Z,6.00
2023-12-09T06:21:17.671Z,5.25
2023-12-09T06:22:21.114Z,6.00
2023-12-09T06:23:24.639Z,5.50
2023-12-09T06:24:28.045Z,5.50
2023-12-09T06:25:31.790Z,5.00
2023-12-09T06:26:35.272Z,5.25
2023-12-09T06:27:38.677Z,4.00
2023-12-09T06:28:42.153Z,4.00
2023-12-09T06:29:45.587Z,5.00
2023-12-09T06:30:48.949Z,4.50
2023-12-09T06:31:52.329Z,4.50
2023-12-09T06:32:55.829Z,6.00
2023-12-09T06:33:59.293Z,6.00
2023-12-09T06:35:02.783Z,4.50
2023-12-09T06:36:06.494Z,5.80
2023-12-09T06:37:10.126Z,6.00
2023-12-09T06:38:13.657Z,5.50
2023-12-09T06:39:17.185Z,5.75
2023-12-09T06:40:20.555Z,4.50
2023-12-09T06:41:24.233Z,4.75
2023-12-09T06:42:27.960Z,5.00
2023-12-09T06:43:31.716Z,5.00
2023-12-09T06:44:35.206Z,4.50
2023-12-09T06:45:38.694Z,4.50
2023-12-09T06:46:42.394Z,4.50
2023-12-09T06:47:45.895Z,4.50
2023-12-09T06:48:49.562Z,5.00
2023-12-09T06:49:53.173Z,5.25
2023-12-09T06:50:56.674Z,5.25
2023-12-09T06:52:00.465Z,5.00
2023-12-09T06:53:03.936Z,5.00
2023-12-09T06:54:07.553Z,4.50
2023-12-09T06:55:11.219Z,4.50
2023-12-09T06:56:14.715Z,5.00
2023-12-09T06:57:17.952Z,5.00
2023-12-09T06:58:21.376Z,5.50
2023-12-09T06:59:24.877Z,6.00
2023-12-09T07:00:28.197Z,7.00
2023-12-09T07:01:31.704Z,7.50
2023-12-09T07:02:44.647Z,8.00
2023-12-09T07:03:39.677Z,7.75
2023-12-09T07:04:43.264Z,7.00
2023-12-09T07:05:46.629Z,7.00
2023-12-09T07:06:49.917Z,8.00
2023-12-09T07:07:53.395Z,7.75
2023-12-09T07:08:57.031Z,8.50
2023-12-09T07:10:00.373Z,9.00
2023-12-09T07:11:03.871Z,9.50
2023-12-09T07:12:07.382Z,8.50
2023-12-09T07:13:10.856Z,8.00
2023-12-09T07:14:14.478Z,8.00
2023-12-09T07:15:18.399Z,7.50
2023-12-09T07:16:22.138Z,7.50
2023-12-09T07:17:25.466Z,8.75
2023-12-09T07:18:29.046Z,8.00
2023-12-09T07:19:32.692Z,7.50
2023-12-09T07:20:36.197Z,7.50
2023-12-09T07:21:40.044Z,7.75
2023-12-09T07:22:43.580Z,7.00
2023-12-09T07:23:47.100Z,7.00
2023-12-09T07:24:50.769Z,7.00
2023-12-09T07:25:54.249Z,6.50
2023-12-09T07:26:57.625Z,6.00
2023-12-09T07:28:01.020Z,6.75
2023-12-09T07:29:04.513Z,6.50
2023-12-09T07:30:08.006Z,6.00
2023-12-09T07:31:11.391Z,6.50
2023-12-09T07:32:14.699Z,7.00
2023-12-09T07:33:19.300Z,8.50
2023-12-09T07:34:22.882Z,8.25
2023-12-09T07:35:26.381Z,7.50
2023-12-09T07:36:29.745Z,7.25
2023-12-09T07:37:34.073Z,7.50
2023-12-09T07:38:37.377Z,8.00
2023-12-09T07:39:41.067Z,7.50
2023-12-09T07:40:44.530Z,7.75
2023-12-09T07:41:47.921Z,9.50
2023-12-09T07:42:51.199Z,10.00
2023-12-09T07:43:54.275Z,6.50
2023-12-09T07:44:57.425Z,7.00
2023-12-09T07:46:00.556Z,6.00
2023-12-09T07:47:03.724Z,6.00
2023-12-09T07:48:07.191Z,6.50
2023-12-09T07:49:10.657Z,6.00
2023-12-09T07:50:13.748Z,6.00
2023-12-09T07:51:16.992Z,5.25
2023-12-09T07:52:20.134Z,5.50
2023-12-09T07:53:23.347Z,5.75
2023-12-09T07:54:26.549Z,6.00
2023-12-09T07:55:29.966Z,5.50
2023-12-09T07:56:33.366Z,5.75
2023-12-09T07:57:36.952Z,6.00
2023-12-09T07:58:40.115Z,5.00
2023-12-09T07:59:43.243Z,4.25
2023-12-09T08:00:46.580Z,5.50
2023-12-09T08:01:49.801Z,4.50
2023-12-09T08:02:52.988Z,5.00
2023-12-09T08:03:56.281Z,5.50
2023-12-09T08:04:59.590Z,6.50
2023-12-09T08:06:02.956Z,5.50
2023-12-09T08:07:06.013Z,5.50
2023-12-09T08:08:10.361Z,5.50
2023-12-09T08:09:13.736Z,5.50
2023-12-09T08:10:17.043Z,6.00
2023-12-09T08:11:20.220Z,5.50
2023-12-09T08:12:23.437Z,5.50
2023-12-09T08:13:26.654Z,6.50
2023-12-09T08:14:29.941Z,5.50
2023-12-09T08:15:33.161Z,4.50
2023-12-09T08:16:36.507Z,4.50
2023-12-09T08:17:39.756Z,5.50
2023-12-09T08:18:44.599Z,6.50
2023-12-09T08:19:47.933Z,7.00
2023-12-09T08:20:51.067Z,6.50
2023-12-09T08:21:54.283Z,5.50
2023-12-09T08:22:57.309Z,5.00
2023-12-09T08:24:00.646Z,5.25
2023-12-09T08:25:03.901Z,4.75
2023-12-09T08:26:06.990Z,6.00
2023-12-09T08:27:10.094Z,6.00
2023-12-09T08:28:13.178Z,5.50
2023-12-09T08:29:16.235Z,5.00
2023-12-09T08:30:19.310Z,6.25
2023-12-09T08:31:22.450Z,6.60
2023-12-09T08:32:25.928Z,7.00
2023-12-09T08:33:29.448Z,7.00
2023-12-09T08:34:32.746Z,6.25
2023-12-09T08:35:36.850Z,7.00
2023-12-09T08:36:40.364Z,7.00
2023-12-09T08:37:43.532Z,6.00
2023-12-09T08:38:46.798Z,5.50
2023-12-09T08:39:50.091Z,6.50
2023-12-09T08:40:54.656Z,6.00
2023-12-09T08:41:58.136Z,5.50
2023-12-09T08:43:01.386Z,6.50
2023-12-09T08:44:04.863Z,5.75
2023-12-09T08:45:09.603Z,5.50
2023-12-09T08:46:12.908Z,6.00
2023-12-09T08:47:16.209Z,5.50
2023-12-09T08:48:19.529Z,5.00
2023-12-09T08:49:23.060Z,4.50
2023-12-09T08:50:26.332Z,5.50
2023-12-09T08:51:29.797Z,5.75
2023-12-09T08:52:33.495Z,5.00
2023-12-09T08:53:36.950Z,6.50
2023-12-09T08:54:40.318Z,6.00
2023-12-09T08:55:43.626Z,7.50
2023-12-09T08:56:46.961Z,6.50
2023-12-09T08:57:50.575Z,6.50
2023-12-09T08:58:53.818Z,7.00
2023-12-09T08:59:56.889Z,7.50
2023-12-09T09:01:00.674Z,8.00
2023-12-09T09:02:04.389Z,6.75
2023-12-09T09:03:07.779Z,7.60
2023-12-09T09:04:11.221Z,8.50
2023-12-09T09:05:14.455Z,9.50
2023-12-09T09:06:17.655Z,7.50
2023-12-09T09:07:21.620Z,7.25
2023-12-09T09:08:24.810Z,6.50
2023-12-09T09:09:27.970Z,7.25
2023-12-09T09:10:31.170Z,9.00
2023-12-09T09:11:34.262Z,8.50
2023-12-09T09:12:37.724Z,8.50
2023-12-09T09:13:41.537Z,8.25
2023-12-09T09:14:44.946Z,9.00
2023-12-09T09:15:48.360Z,9.50
2023-12-09T09:16:51.693Z,9.25
2023-12-09T09:17:56.274Z,9.00
2023-12-09T09:18:59.842Z,8.75
2023-12-09T09:20:03.586Z,8.50
2023-12-09T09:21:06.932Z,8.75
2023-12-09T09:22:10.470Z,8.00
2023-12-09T09:23:13.812Z,10.00
2023-12-09T09:24:17.069Z,9.00
2023-12-09T09:25:20.549Z,8.00
2023-12-09T09:26:23.956Z,9.00
2023-12-09T09:27:27.896Z,8.25
2023-12-09T09:28:31.320Z,7.00
2023-12-09T09:29:34.807Z,9.00
2023-12-09T09:30:38.321Z,9.00
2023-12-09T09:31:41.583Z,9.00
2023-12-09T09:32:45.951Z,10.00
2023-12-09T09:33:49.628Z,9.75
2023-12-09T09:34:53.133Z,9.50
2023-12-09T09:35:56.639Z,9.00
2023-12-09T09:37:00.647Z,10.50
2023-12-09T09:38:03.819Z,9.50
2023-12-09T09:39:08.413Z,8.25
2023-12-09T09:40:11.626Z,9.25
2023-12-09T09:41:15.223Z,8.50
2023-12-09T09:42:18.859Z,8.50
2023-12-09T09:43:22.018Z,7.50
2023-12-09T09:44:25.606Z,10.00
2023-12-09T09:45:31.969Z,10.25
2023-12-09T09:46:33.506Z,9.50
2023-12-09T09:47:38.675Z,10.00
2023-12-09T09:48:42.246Z,9.00
2023-12-09T09:49:45.896Z,9.00
2023-12-09T09:50:49.284Z,10.00
2023-12-09T09:51:52.665Z,9.00
2023-12-09T09:52:56.261Z,10.00
2023-12-09T09:53:59.985Z,9.75
2023-12-09T09:55:03.650Z,9.25
2023-12-09T09:56:06.932Z,9.50
2023-12-09T09:57:10.241Z,8.75
2023-12-09T09:58:13.622Z,8.25
2023-12-09T09:59:17.001Z,9.00
2023-12-09T10:00:20.409Z,8.00
2023-12-09T10:01:23.838Z,7.50
2023-12-09T10:02:27.468Z,8.00
2023-12-09T10:03:30.725Z,8.50
2023-12-09T10:04:34.046Z,8.50
2023-12-09T10:05:37.855Z,8.00
2023-12-09T10:06:41.263Z,8.00
2023-12-09T10:07:45.088Z,8.75
2023-12-09T10:08:50.843Z,8.00
2023-12-09T10:09:53.112Z,8.50
2023-12-09T10:10:56.402Z,8.50
2023-12-09T10:11:59.919Z,8.50
2023-12-09T10:13:03.267Z,7.25
2023-12-09T10:14:06.494Z,8.25
2023-12-09T10:15:09.672Z,7.50
2023-12-09T10:16:13.335Z,8.50
2023-12-09T10:17:16.850Z,9.00
2023-12-09T10:18:20.368Z,9.00
2023-12-09T10:19:24.021Z,8.50
2023-12-09T10:20:27.626Z,6.50
2023-12-09T10:21:31.012Z,7.75
2023-12-09T10:22:34.366Z,7.50
2023-12-09T10:23:37.649Z,7.50
2023-12-09T10:24:46.087Z,8.40
2023-12-09T10:25:45.239Z,7.75
2023-12-09T10:26:49.647Z,6.50
2023-12-09T10:27:53.193Z,8.00
2023-12-09T10:28:56.632Z,7.50
2023-12-09T10:30:00.215Z,8.25
2023-12-09T10:31:03.815Z,8.50
2023-12-09T10:32:07.012Z,7.00
2023-12-09T10:33:10.273Z,7.00
2023-12-09T10:34:13.653Z,8.50
2023-12-09T10:35:17.028Z,8.00
2023-12-09T10:36:20.346Z,7.50
2023-12-09T10:37:23.753Z,6.00
2023-12-09T10:38:27.116Z,4.75
2023-12-09T10:39:30.526Z,7.00
2023-12-09T10:40:34.305Z,7.50
2023-12-09T10:41:37.607Z,7.00
2023-12-09T10:42:41.196Z,6.50
2023-12-09T10:43:44.574Z,6.00
2023-12-09T10:44:48.424Z,5.50
2023-12-09T10:45:52.100Z,7.00
2023-12-09T10:46:55.738Z,7.75
2023-12-09T10:47:59.261Z,8.50
2023-12-09T10:49:03.252Z,6.00
2023-12-09T10:50:06.720Z,5.50
2023-12-09T10:51:10.352Z,8.00
2023-12-09T10:52:13.710Z,7.50
2023-12-09T10:53:17.082Z,7.50
2023-12-09T10:54:20.169Z,8.00
2023-12-09T10:55:23.851Z,6.75
2023-12-09T10:56:27.609Z,6.00
2023-12-09T10:57:31.195Z,6.25
2023-12-09T10:58:36.468Z,6.50
2023-12-09T10:59:38.952Z,6.50
2023-12-09T11:00:42.445Z,6.50
2023-12-09T11:01:45.717Z,6.00
2023-12-09T11:02:48.898Z,6.00
2023-12-09T11:03:52.326Z,6.25
2023-12-09T11:04:55.852Z,6.25
2023-12-09T11:05:59.339Z,7.00
2023-12-09T11:07:02.547Z,6.00
2023-12-09T11:08:05.949Z,6.50
2023-12-09T11:09:09.454Z,7.00
2023-12-09T11:10:12.827Z,7.25
2023-12-09T11:11:17.803Z,7.50
2023-12-09T11:12:20.846Z,7.25
2023-12-09T11:13:24.298Z,7.50
2023-12-09T11:14:27.648Z,7.00
2023-12-09T11:15:30.884Z,6.50
2023-12-09T11:16:34.275Z,5.50
2023-12-09T11:17:37.954Z,5.25
2023-12-09T11:18:41.443Z,6.00
2023-12-09T11:19:44.581Z,6.00
2023-12-09T11:20:47.929Z,7.25
2023-12-09T11:21:51.092Z,6.75
2023-12-09T11:22:54.164Z,5.25
2023-12-09T11:23:57.362Z,4.50
2023-12-09T11:25:00.636Z,5.50
2023-12-09T11:26:03.957Z,5.25
2023-12-09T11:27:07.275Z,6.00
2023-12-09T11:28:10.383Z,6.50
2023-12-09T11:29:13.765Z,6.00
2023-12-09T11:30:16.877Z,5.50
2023-12-09T11:31:20.073Z,6.00
2023-12-09T11:32:23.219Z,6.00
2023-12-09T11:33:26.492Z,6.00
2023-12-09T11:34:30.117Z,5.00
2023-12-09T11:35:33.471Z,4.50
2023-12-09T11:36:36.558Z,5.50
2023-12-09T11:37:39.913Z,6.00
2023-12-09T11:38:43.046Z,6.60
2023-12-09T11:39:46.399Z,5.75
2023-12-09T11:40:49.701Z,5.25
2023-12-09T11:41:53.024Z,5.50
2023-12-09T11:42:56.357Z,4.50
2023-12-09T11:43:59.660Z,4.25
2023-12-09T11:45:03.003Z,4.00
2023-12-09T11:46:06.222Z,3.50
2023-12-09T11:47:09.495Z,4.00
2023-12-09T11:48:12.899Z,5.75
2023-12-09T11:49:16.654Z,4.50
2023-12-09T11:50:20.142Z,4.50
2023-12-09T11:51:23.694Z,4.00
2023-12-09T11:52:27.079Z,3.50
2023-12-09T11:53:31.009Z,4.75
2023-12-09T11:54:34.561Z,5.00
2023-12-09T11:55:37.815Z,4.25
2023-12-09T11:56:40.912Z,4.50
2023-12-09T11:57:44.226Z,6.25
2023-12-09T11:58:47.369Z,5.00
2023-12-09T11:59:50.541Z,3.50
2023-12-09T12:00:53.829Z,3.25
2023-12-09T12:01:57.021Z,5.00
2023-12-09T12:03:00.420Z,5.25
2023-12-09T12:04:03.786Z,5.50
2023-12-09T12:05:07.172Z,5.25
2023-12-09T12:06:10.375Z,4.50
2023-12-09T12:07:13.740Z,4.25
2023-12-09T12:08:16.886Z,3.50
2023-12-09T12:09:20.498Z,4.50
2023-12-09T12:10:23.944Z,5.00
2023-12-09T12:11:27.192Z,3.50
2023-12-09T12:12:30.566Z,3.40
2023-12-09T12:13:33.863Z,3.50
2023-12-09T12:14:37.543Z,4.00
2023-12-09T12:15:40.885Z,4.00
2023-12-09T12:16:44.416Z,3.50
2023-12-09T12:17:47.741Z,2.75
2023-12-09T12:18:51.527Z,4.00
2023-12-09T12:19:55.143Z,4.50
2023-12-09T12:20:58.494Z,3.00
2023-12-09T12:22:01.990Z,3.50
2023-12-09T12:23:06.733Z,4.00
2023-12-09T12:24:10.297Z,4.00
2023-12-09T12:25:13.792Z,4.00
2023-12-09T12:26:17.068Z,4.50
2023-12-09T12:27:20.706Z,4.50
2023-12-09T12:28:24.038Z,5.00
2023-12-09T12:29:27.580Z,4.00
2023-12-09T12:30:31.107Z,3.50
2023-12-09T12:31:34.214Z,3.00
2023-12-09T12:32:37.595Z,3.00
2023-12-09T12:33:41.234Z,4.00
2023-12-09T12:34:45.000Z,4.00
2023-12-09T12:35:48.655Z,3.50
2023-12-09T12:36:52.220Z,3.50
2023-12-09T12:37:55.629Z,3.50
2023-12-09T12:38:59.091Z,2.50
2023-12-09T12:40:02.521Z,4.00
2023-12-09T12:41:05.899Z,3.00
2023-12-09T12:42:09.332Z,3.50
2023-12-09T12:43:12.672Z,3.50
2023-12-09T12:44:16.088Z,3.00
2023-12-09T12:45:19.579Z,3.50
2023-12-09T12:46:22.992Z,3.00
2023-12-09T12:47:26.611Z,2.25
2023-12-09T12:48:30.391Z,3.50
2023-12-09T12:49:33.975Z,4.00
2023-12-09T12:50:37.323Z,2.50
2023-12-09T12:51:40.612Z,2.00
2023-12-09T12:52:44.082Z,3.00
2023-12-09T12:53:47.231Z,2.50
2023-12-09T12:54:50.550Z,1.40
2023-12-09T12:55:53.696Z,2.00
2023-12-09T12:56:56.958Z,2.20
2023-12-09T12:58:00.222Z,1.80
2023-12-09T12:59:03.777Z,1.50
2023-12-09T13:00:12.224Z,1.50
2023-12-09T13:01:11.478Z,2.00
2023-12-09T13:02:14.978Z,2.00
2023-12-09T13:03:18.444Z,2.00
2023-12-09T13:04:21.718Z,1.60
2023-12-09T13:05:25.044Z,2.00
2023-12-09T13:06:28.501Z,1.50
2023-12-09T13:07:32.101Z,2.00
2023-12-09T13:08:35.592Z,2.00
2023-12-09T13:09:39.107Z,2.25
2023-12-09T13:10:42.675Z,1.75
2023-12-09T13:11:46.058Z,2.00
2023-12-09T13:12:49.562Z,2.00
2023-12-09T13:13:52.861Z,1.50
2023-12-09T13:14:56.494Z,1.00
2023-12-09T13:15:59.922Z,1.00
2023-12-09T13:17:03.214Z,1.50
2023-12-09T13:18:06.891Z,1.50
2023-12-09T13:19:10.730Z,2.00
2023-12-09T13:20:14.177Z,1.50
2023-12-09T13:21:17.689Z,2.00
2023-12-09T13:22:20.968Z,2.00
2023-12-09T13:23:24.589Z,1.50
2023-12-09T13:24:28.009Z,1.50
2023-12-09T13:25:31.308Z,1.50
2023-12-09T13:26:34.594Z,2.50
2023-12-09T13:27:38.030Z,2.25
2023-12-09T13:28:41.475Z,1.50
2023-12-09T13:29:44.831Z,1.50
2023-12-09T13:30:48.157Z,1.50
2023-12-09T13:31:51.631Z,1.50
2023-12-09T13:32:55.043Z,1.00
2023-12-09T13:33:58.634Z,1.00
2023-12-09T13:35:02.060Z,1.25
2023-12-09T13:36:05.521Z,1.00
2023-12-09T13:37:08.944Z,1.00
2023-12-09T13:38:12.163Z,1.25
2023-12-09T13:39:15.551Z,1.75
2023-12-09T13:40:18.842Z,1.50
2023-12-09T13:41:22.131Z,2.00
2023-12-09T13:42:25.521Z,2.00
2023-12-09T13:43:28.889Z,2.00
2023-12-09T13:44:31.981Z,1.25
2023-12-09T13:45:35.416Z,1.50
2023-12-09T13:46:38.543Z,1.50
2023-12-09T13:47:42.008Z,1.00
2023-12-09T13:48:45.350Z,2.00
2023-12-09T13:49:48.773Z,1.50
2023-12-09T13:50:52.073Z,1.00
2023-12-09T13:51:55.161Z,1.00
2023-12-09T13:52:58.370Z,1.00
2023-12-09T13:54:01.559Z,2.00
2023-12-09T13:55:04.733Z,1.50
2023-12-09T13:56:07.931Z,1.50
2023-12-09T13:57:11.376Z,2.00
2023-12-09T13:58:14.663Z,2.00
2023-12-09T13:59:17.859Z,1.50
2023-12-09T14:00:21.151Z,1.50
2023-12-09T14:01:24.465Z,1.50
2023-12-09T14:02:27.983Z,2.50
2023-12-09T14:03:31.133Z,2.50